Time;durP1;ratioP1;P1;durP2;ratioP2;P2;SDS_P1;SDS_P2;PMS_P1;PMS_P2;Temp;Humidity;BMP_temperature;BMP_pressure;BME280_temperature;BME280_humidity;BME280_pressure;Samples;Min_cycle;Max_cycle;Signal;HPM_P1;HPM_P2
2024/01/24 00:00:07;;;;;;;10.40;6.97;;;;;;;1.06;78.46;95780.88;5132367;27;20055;-64
2024/01/24 00:02:32;;;;;;;11.02;5.68;;;;;;;1.00;79.12;95778.50;5131047;27;20039;-65
2024/01/24 00:04:58;;;;;;;8.82;5.93;;;;;;;0.97;78.79;95774.28;5109069;27;20062;-64
2024/01/24 00:07:23;;;;;;;10.90;5.55;;;;;;;1.11;78.58;95767.06;5121841;27;20019;-64
2024/01/24 00:09:49;;;;;;;10.02;5.60;;;;;;;1.11;78.78;95769.63;5139372;27;20035;-64
2024/01/24 00:12:14;;;;;;;6.78;4.15;;;;;;;1.02;78.95;95781.84;5130442;27;20031;-64
2024/01/24 00:14:39;;;;;;;8.13;4.88;;;;;;;1.15;78.87;95788.28;5127642;27;20023;-64
2024/01/24 00:17:05;;;;;;;9.43;5.00;;;;;;;1.14;77.79;95786.59;5118261;27;20449;-64
2024/01/24 00:19:31;;;;;;;7.05;4.82;;;;;;;1.23;77.49;95796.56;5147502;27;20023;-64
2024/01/24 00:21:56;;;;;;;10.02;5.43;;;;;;;0.97;78.09;95804.16;5130684;27;20027;-64
2024/01/24 00:24:21;;;;;;;8.85;5.38;;;;;;;1.18;77.12;95805.28;5127071;27;20050;-64
2024/01/24 00:26:47;;;;;;;10.40;5.50;;;;;;;1.09;77.70;95808.94;5133093;27;20432;-64
2024/01/24 00:29:12;;;;;;;7.55;4.70;;;;;;;1.13;77.43;95791.75;5142489;27;20031;-64
2024/01/24 00:31:38;;;;;;;7.63;5.10;;;;;;;1.01;78.49;95801.50;5114546;27;20080;-64
2024/01/24 00:34:03;;;;;;;8.48;5.80;;;;;;;0.94;79.04;95806.81;5109499;27;20027;-64
2024/01/24 00:36:29;;;;;;;8.63;5.75;;;;;;;0.79;78.94;95806.41;5134027;27;20454;-64
2024/01/24 00:38:54;;;;;;;9.65;5.45;;;;;;;1.06;78.07;95811.59;5115524;27;20031;-64
2024/01/24 00:41:19;;;;;;;6.82;4.85;;;;;;;1.09;77.55;95803.81;5132402;27;20035;-64
2024/01/24 00:43:45;;;;;;;7.18;4.90;;;;;;;1.18;78.06;95805.28;5130132;27;20039;-65
2024/01/24 00:46:10;;;;;;;7.82;4.88;;;;;;;0.84;77.43;95768.72;5132142;27;20485;-64
2024/01/24 00:48:36;;;;;;;7.75;4.43;;;;;;;1.08;77.46;95808.09;5129703;27;20031;-65
2024/01/24 00:51:01;;;;;;;8.25;5.15;;;;;;;1.18;76.63;95803.53;5114306;27;20031;-64
2024/01/24 00:53:28;;;;;;;8.75;4.95;;;;;;;1.04;78.30;95801.41;5126486;27;20479;-64
2024/01/24 00:55:55;;;;;;;9.18;4.65;;;;;;;1.04;77.48;95806.50;5129045;27;20037;-64
2024/01/24 00:58:21;;;;;;;8.27;4.97;;;;;;;1.02;77.82;95807.44;5131627;27;20050;-65
2024/01/24 01:00:46;;;;;;;7.00;5.03;;;;;;;1.19;77.51;95812.06;5131869;27;20472;-64
2024/01/24 01:03:12;;;;;;;7.95;4.78;;;;;;;1.37;77.45;95808.09;5128564;27;20050;-64
2024/01/24 01:05:38;;;;;;;10.13;5.70;;;;;;;1.13;77.41;95810.50;5127992;27;20031;-64
2024/01/24 01:08:05;;;;;;;11.38;5.78;;;;;;;1.18;77.54;95818.91;5131764;27;20408;-65
2024/01/24 01:10:30;;;;;;;11.48;6.63;;;;;;;1.06;78.08;95817.53;5114875;27;20037;-64
2024/01/24 01:12:56;;;;;;;9.02;5.47;;;;;;;1.08;77.46;95817.50;5140416;27;20027;-64
2024/01/24 01:15:21;;;;;;;8.95;5.63;;;;;;;1.09;77.14;95806.38;5125576;27;20039;-64
2024/01/24 01:17:46;;;;;;;9.07;5.35;;;;;;;1.10;77.08;95805.50;5130696;27;20023;-64
2024/01/24 01:20:14;;;;;;;8.95;5.47;;;;;;;1.05;76.61;95812.47;5133031;27;20027;-64
2024/01/24 01:22:39;;;;;;;7.38;4.57;;;;;;;1.00;76.63;95809.19;5128887;27;20034;-64
2024/01/24 01:25:05;;;;;;;7.70;5.38;;;;;;;0.85;75.88;95770.38;5126496;27;20031;-64
2024/01/24 01:27:31;;;;;;;6.32;4.78;;;;;;;1.15;76.12;95801.06;5121084;27;20481;-65
2024/01/24 01:29:56;;;;;;;7.47;4.20;;;;;;;1.17;75.81;95807.00;5131388;27;20039;-64
2024/01/24 01:32:22;;;;;;;9.30;5.43;;;;;;;0.81;76.12;95796.97;5130657;27;20083;-64
2024/01/24 01:34:47;;;;;;;7.30;4.75;;;;;;;0.76;76.99;95801.38;5124049;27;20055;-64
2024/01/24 01:37:12;;;;;;;7.50;4.82;;;;;;;0.79;76.92;95801.28;5118330;27;20030;-64
2024/01/24 01:39:38;;;;;;;8.20;4.90;;;;;;;0.70;77.35;95804.09;5146076;27;20027;-64
2024/01/24 01:42:03;;;;;;;9.55;5.72;;;;;;;0.83;76.78;95805.41;5111726;27;20027;-64
2024/01/24 01:44:29;;;;;;;8.32;5.35;;;;;;;0.85;76.81;95806.22;5126958;27;20019;-64
2024/01/24 01:46:54;;;;;;;10.10;6.35;;;;;;;0.80;76.91;95792.72;5129169;27;20488;-64
2024/01/24 01:49:21;;;;;;;14.07;8.00;;;;;;;0.96;76.45;95795.66;5113811;27;20026;-64
2024/01/24 01:51:47;;;;;;;10.27;5.93;;;;;;;0.78;77.71;95803.88;5127567;27;20031;-64
2024/01/24 01:54:13;;;;;;;9.63;5.30;;;;;;;0.60;77.31;95793.28;5126689;27;20054;-64
2024/01/24 01:56:38;;;;;;;7.82;5.25;;;;;;;0.54;77.85;95792.63;5110738;27;20043;-65
2024/01/24 01:59:05;;;;;;;8.93;5.18;;;;;;;0.59;77.63;95793.34;5129519;27;20027;-64
2024/01/24 02:01:30;;;;;;;7.95;5.60;;;;;;;0.54;77.42;95772.16;5113629;27;20557;-64
2024/01/24 02:03:56;;;;;;;9.73;5.82;;;;;;;0.39;78.27;95783.66;5123546;27;20035;-65
2024/01/24 02:06:22;;;;;;;9.18;5.53;;;;;;;0.56;77.52;95772.97;5113243;27;20547;-65
2024/01/24 02:08:48;;;;;;;9.77;6.25;;;;;;;0.45;77.82;95760.50;5127794;27;20427;-64
2024/01/24 02:11:13;;;;;;;8.65;5.75;;;;;;;0.70;77.27;95767.44;5113689;27;20039;-64
2024/01/24 02:13:39;;;;;;;8.52;6.00;;;;;;;0.66;77.26;95764.97;5123931;27;20034;-64
2024/01/24 02:16:04;;;;;;;8.82;5.03;;;;;;;0.49;78.05;95776.56;5131386;27;20247;-64
2024/01/24 02:18:30;;;;;;;7.60;5.00;;;;;;;0.49;77.65;95766.34;5130404;27;20027;-64
2024/01/24 02:20:56;;;;;;;9.18;5.55;;;;;;;0.52;78.24;95768.81;5129455;27;20126;-64
2024/01/24 02:23:25;;;;;;;8.13;5.18;;;;;;;0.42;78.15;95775.91;5126952;27;20035;-64
2024/01/24 02:25:51;;;;;;;7.35;5.28;;;;;;;0.27;78.25;95771.22;5128876;27;20396;-64
2024/01/24 02:28:17;;;;;;;8.73;5.35;;;;;;;0.15;78.57;95767.28;5129753;27;20031;-64
2024/01/24 02:30:42;;;;;;;8.77;5.82;;;;;;;0.01;78.94;95751.47;5111852;28;20586;-64
2024/01/24 02:33:08;;;;;;;9.35;5.22;;;;;;;0.06;79.32;95767.53;5120604;27;20035;-64
2024/01/24 02:35:34;;;;;;;10.32;6.63;;;;;;;0.06;78.67;95760.69;5127330;27;20081;-64
2024/01/24 02:38:00;;;;;;;10.75;6.53;;;;;;;0.02;78.73;95765.91;5134092;27;20024;-64
2024/01/24 02:40:25;;;;;;;7.88;4.97;;;;;;;0.09;78.61;95770.84;5136086;27;20153;-64
2024/01/24 02:42:51;;;;;;;8.80;5.78;;;;;;;0.08;78.70;95766.59;5134037;27;20027;-64
2024/01/24 02:45:16;;;;;;;10.77;5.60;;;;;;;-0.03;78.59;95761.78;5117450;27;20460;-64
2024/01/24 02:47:41;;;;;;;9.63;5.47;;;;;;;0.04;79.03;95765.00;5120611;27;20038;-64
2024/01/24 02:50:07;;;;;;;10.48;5.25;;;;;;;0.07;78.32;95754.69;5134202;27;20429;-64
2024/01/24 02:52:33;;;;;;;6.97;5.07;;;;;;;0.05;78.07;95750.50;5132743;27;20023;-64
2024/01/24 02:54:58;;;;;;;8.38;5.22;;;;;;;0.01;79.02;95754.88;5134628;27;20031;-64
2024/01/24 02:57:24;;;;;;;9.10;5.88;;;;;;;0.01;78.20;95759.97;5135626;27;20038;-64
2024/01/24 02:59:49;;;;;;;8.77;5.63;;;;;;;0.13;78.01;95748.59;5134256;27;20502;-64
2024/01/24 03:02:14;;;;;;;10.93;6.00;;;;;;;0.30;77.39;95766.84;5133252;27;20031;-64
2024/01/24 03:04:40;;;;;;;10.02;5.80;;;;;;;0.31;77.10;95763.44;5134325;27;20495;-64
2024/01/24 03:07:05;;;;;;;9.88;6.50;;;;;;;0.26;77.25;95765.28;5117220;27;20436;-64
2024/01/24 03:09:31;;;;;;;11.45;5.90;;;;;;;0.24;76.74;95776.41;5135347;27;20027;-64
2024/01/24 03:11:56;;;;;;;10.30;6.40;;;;;;;0.24;76.79;95771.31;5115978;27;20027;-64
2024/01/24 03:14:22;;;;;;;9.45;5.82;;;;;;;0.12;77.43;95763.09;5135287;27;20019;-64
2024/01/24 03:16:47;;;;;;;11.02;6.10;;;;;;;0.02;77.89;95773.59;5135275;27;20117;-64
2024/01/24 03:19:13;;;;;;;9.98;6.53;;;;;;;0.20;76.37;95765.44;5132680;27;20092;-64
2024/01/24 03:21:40;;;;;;;9.68;6.80;;;;;;;0.14;77.41;95758.78;5135660;27;20118;-64
2024/01/24 03:24:05;;;;;;;9.32;6.15;;;;;;;0.24;76.49;95755.97;5133923;27;20034;-64
2024/01/24 03:26:31;;;;;;;10.95;7.13;;;;;;;0.29;76.68;95749.00;5116978;27;20039;-64
2024/01/24 03:28:56;;;;;;;9.30;5.78;;;;;;;0.26;76.63;95752.50;5133375;27;20034;-64
2024/01/24 03:31:22;;;;;;;9.02;5.82;;;;;;;0.18;76.92;95733.97;5134979;27;20088;-64
2024/01/24 03:33:47;;;;;;;9.65;5.82;;;;;;;0.11;77.06;95737.56;5134954;27;20023;-64
2024/01/24 03:36:13;;;;;;;9.88;6.82;;;;;;;0.14;77.21;95745.13;5135332;27;20461;-64
2024/01/24 03:38:38;;;;;;;20.20;11.35;;;;;;;0.06;77.46;95741.97;5112123;28;20035;-65
2024/01/24 03:41:04;;;;;;;21.40;14.35;;;;;;;-0.20;78.02;95745.22;5114776;28;20036;-64
2024/01/24 03:43:29;;;;;;;14.32;9.40;;;;;;;-0.31;77.32;95750.59;5112961;28;20538;-64
2024/01/24 03:45:55;;;;;;;16.50;10.45;;;;;;;-0.10;77.51;95751.75;5113180;28;20042;-65
2024/01/24 03:48:20;;;;;;;17.50;9.00;;;;;;;-0.12;76.49;95745.84;5131133;27;20027;-64
2024/01/24 03:50:46;;;;;;;11.70;7.88;;;;;;;-0.43;78.12;95748.34;5134921;27;20042;-64
2024/01/24 03:53:11;;;;;;;10.90;6.95;;;;;;;-0.53;78.83;95750.28;5133422;27;20023;-64
2024/01/24 03:55:36;;;;;;;9.80;6.72;;;;;;;-0.37;78.29;95731.16;5131825;27;20485;-64
2024/01/24 03:58:02;;;;;;;13.90;7.13;;;;;;;-0.26;78.03;95736.81;5134746;27;20076;-64
2024/01/24 04:00:27;;;;;;;10.88;7.00;;;;;;;-0.31;77.77;95748.03;5134726;27;20027;-64
2024/01/24 04:02:53;;;;;;;10.85;6.97;;;;;;;-0.22;77.30;95740.16;5133007;27;20023;-64
2024/01/24 04:05:18;;;;;;;12.25;7.43;;;;;;;-0.32;77.84;95743.81;5115106;27;20469;-64
2024/01/24 04:07:44;;;;;;;10.45;7.15;;;;;;;-0.24;77.73;95740.19;5134283;27;20027;-64
2024/01/24 04:10:09;;;;;;;11.35;7.90;;;;;;;-0.37;77.75;95745.63;5134450;27;20035;-64
2024/01/24 04:12:35;;;;;;;10.18;6.97;;;;;;;-0.31;77.63;95753.13;5134311;27;20019;-64
2024/01/24 04:15:00;;;;;;;11.18;7.72;;;;;;;-0.38;78.36;95761.84;5131191;27;20057;-64
2024/01/24 04:17:25;;;;;;;11.05;7.43;;;;;;;-0.45;77.80;95756.03;5134119;27;20561;-64
2024/01/24 04:19:51;;;;;;;14.75;10.80;;;;;;;-0.42;77.62;95775.56;5132849;27;20044;-64
2024/01/24 04:22:16;;;;;;;14.48;10.73;;;;;;;-0.50;77.92;95771.50;5134101;27;20019;-64
2024/01/24 04:24:45;;;;;;;14.05;8.88;;;;;;;-0.40;77.87;95773.81;5132360;27;20465;-64
2024/01/24 04:27:10;;;;;;;21.73;14.50;;;;;;;-0.50;77.75;95781.69;5122793;27;20439;-64
2024/01/24 04:29:36;;;;;;;14.45;10.90;;;;;;;-0.44;78.27;95784.97;5121478;27;20031;-65
2024/01/24 04:32:02;;;;;;;16.17;10.52;;;;;;;-0.53;77.86;95788.56;5126785;27;20532;-64
2024/01/24 04:34:27;;;;;;;26.92;16.98;;;;;;;-0.40;77.60;95799.34;5126666;27;20028;-63
2024/01/24 04:36:54;;;;;;;25.38;16.38;;;;;;;-0.50;77.98;95791.91;5132277;27;20024;-64
2024/01/24 04:39:20;;;;;;;26.15;16.00;;;;;;;-0.50;78.29;95788.53;5128078;27;20106;-64
2024/01/24 04:41:45;;;;;;;46.67;22.60;;;;;;;-0.55;78.47;95792.91;5124524;27;20035;-64
2024/01/24 04:44:11;;;;;;;47.10;23.60;;;;;;;-0.53;78.32;95796.22;5125578;27;20501;-64
2024/01/24 04:46:36;;;;;;;17.65;9.65;;;;;;;-0.75;78.82;95806.13;5131456;27;20046;-64
2024/01/24 04:49:02;;;;;;;20.52;10.40;;;;;;;-0.86;78.75;95790.19;5122577;27;20039;-64
2024/01/24 04:51:28;;;;;;;18.42;9.80;;;;;;;-0.74;78.66;95803.53;5120146;27;20031;-64
2024/01/24 04:53:53;;;;;;;27.55;12.20;;;;;;;-0.73;78.52;95796.69;5110971;28;20549;-64
2024/01/24 04:56:18;;;;;;;34.20;15.80;;;;;;;-0.73;78.50;95796.69;5125064;27;20035;-64
2024/01/24 04:58:44;;;;;;;40.00;15.23;;;;;;;-0.73;78.62;95807.75;5130985;27;20027;-63
2024/01/24 05:01:11;;;;;;;20.42;10.75;;;;;;;-0.59;78.86;95799.75;5131467;27;20042;-64
2024/01/24 05:03:36;;;;;;;15.82;9.18;;;;;;;-0.65;78.17;95810.13;5106120;28;20092;-64
2024/01/24 05:06:03;;;;;;;18.55;9.15;;;;;;;-0.55;78.10;95821.81;5120799;27;20039;-64
2024/01/24 05:08:28;;;;;;;13.00;6.95;;;;;;;-0.50;78.62;95817.44;5128800;27;20121;-64
2024/01/24 05:10:54;;;;;;;11.68;6.80;;;;;;;-0.57;78.59;95802.28;5127196;27;20089;-64
2024/01/24 05:13:20;;;;;;;12.68;8.75;;;;;;;-0.48;77.63;95823.31;5114120;27;20057;-64
2024/01/24 05:15:45;;;;;;;12.48;6.75;;;;;;;-0.41;77.92;95825.75;5126318;27;20042;-64
2024/01/24 05:18:11;;;;;;;12.60;7.80;;;;;;;-0.46;78.13;95828.41;5122460;27;20027;-64
2024/01/24 05:20:37;;;;;;;13.32;6.85;;;;;;;-0.36;78.11;95829.88;5099050;27;20039;-64
2024/01/24 05:23:03;;;;;;;12.07;7.15;;;;;;;-0.46;78.13;95820.75;5114222;27;20030;-64
2024/01/24 05:25:30;;;;;;;10.38;6.93;;;;;;;-0.30;78.03;95824.63;5123007;27;20038;-64
2024/01/24 05:27:55;;;;;;;13.45;7.47;;;;;;;-0.37;78.85;95824.78;5117201;27;20497;-64
2024/01/24 05:30:20;;;;;;;13.68;8.13;;;;;;;-0.55;78.31;95844.78;5117819;27;20031;-64
2024/01/24 05:32:46;;;;;;;12.20;6.95;;;;;;;-0.37;78.82;95840.94;5132338;27;20027;-64
2024/01/24 05:35:11;;;;;;;16.20;9.60;;;;;;;-0.38;78.97;95835.91;5128086;27;20091;-64
2024/01/24 05:37:37;;;;;;;14.70;8.27;;;;;;;-0.55;79.66;95821.81;5110469;27;20312;-64
2024/01/24 05:43:03;;;;;;;16.40;8.77;;;;;;;-0.50;79.87;95840.41;5127551;27;20420;-64
2024/01/24 05:45:28;;;;;;;13.40;9.20;;;;;;;-0.48;79.32;95833.53;5117197;27;20473;-64
2024/01/24 05:47:54;;;;;;;15.73;9.45;;;;;;;-0.42;79.97;95834.28;5130454;27;20023;-64
2024/01/24 05:50:19;;;;;;;15.85;9.00;;;;;;;-0.32;79.41;95838.28;5130611;27;20023;-64
2024/01/24 05:52:45;;;;;;;13.32;8.55;;;;;;;-0.17;78.83;95837.06;5129378;27;20042;-64
2024/01/24 05:55:11;;;;;;;14.02;7.97;;;;;;;-0.31;78.51;95817.81;5113580;27;20036;-64
2024/01/24 05:57:39;;;;;;;14.88;7.13;;;;;;;-0.19;79.14;95824.34;5125053;27;20535;-65
2024/01/24 06:00:08;;;;;;;9.77;7.38;;;;;;;-0.30;78.89;95827.16;5114073;27;20027;-64
2024/01/24 06:02:34;;;;;;;14.10;7.85;;;;;;;-0.29;78.68;95816.06;5134342;27;20038;-64
2024/01/24 06:05:00;;;;;;;11.40;7.38;;;;;;;-0.14;78.59;95819.97;5135499;27;20047;-64
2024/01/24 06:07:25;;;;;;;12.60;7.78;;;;;;;-0.15;78.86;95823.38;5128092;27;20031;-64
2024/01/24 06:09:51;;;;;;;11.00;7.15;;;;;;;-0.03;79.19;95830.75;5129848;27;20039;-64
2024/01/24 06:12:16;;;;;;;11.98;7.38;;;;;;;-0.03;78.56;95835.88;5109321;28;20035;-64
2024/01/24 06:14:41;;;;;;;14.27;9.40;;;;;;;-0.24;78.86;95821.91;5111121;28;20497;-64
2024/01/24 06:17:07;;;;;;;10.77;7.22;;;;;;;0.02;78.01;95840.00;5126419;27;20023;-64
2024/01/24 06:19:32;;;;;;;14.23;7.47;;;;;;;0.03;78.17;95828.91;5129625;27;20034;-64
2024/01/24 06:21:58;;;;;;;11.63;6.68;;;;;;;0.25;77.01;95824.91;5129854;27;20023;-64
2024/01/24 06:24:23;;;;;;;11.38;7.05;;;;;;;0.27;77.25;95837.66;5131644;27;20023;-64
2024/01/24 06:26:48;;;;;;;12.35;7.68;;;;;;;0.21;76.56;95831.84;5125300;27;20027;-64
2024/01/24 06:29:14;;;;;;;12.13;6.65;;;;;;;0.27;76.71;95820.59;5130042;27;20027;-64
2024/01/24 06:31:39;;;;;;;9.73;6.40;;;;;;;0.40;76.13;95828.81;5130970;27;20054;-64
2024/01/24 06:34:05;;;;;;;12.10;7.15;;;;;;;0.63;76.17;95828.16;5129117;28;20039;-64
2024/01/24 06:36:30;;;;;;;11.82;7.40;;;;;;;0.33;75.67;95802.53;5125766;28;20024;-64
2024/01/24 06:38:55;;;;;;;12.80;6.78;;;;;;;0.74;75.41;95827.88;5129794;27;20381;-64
2024/01/24 06:41:21;;;;;;;10.23;6.93;;;;;;;0.81;74.42;95819.97;5109322;28;20413;-64
2024/01/24 06:43:46;;;;;;;10.90;6.22;;;;;;;0.87;74.28;95819.81;5122207;28;21095;-64
2024/01/24 06:46:12;;;;;;;11.18;7.38;;;;;;;0.81;74.55;95824.28;5108636;28;20031;-64
2024/01/24 06:48:37;;;;;;;9.55;6.22;;;;;;;0.87;74.97;95817.25;5125438;27;20027;-64
2024/01/24 06:51:03;;;;;;;10.48;6.70;;;;;;;0.76;75.29;95808.22;5115588;27;20477;-64
2024/01/24 06:53:28;;;;;;;11.57;7.10;;;;;;;0.77;74.96;95823.50;5100923;28;20031;-64
2024/01/24 06:55:56;;;;;;;13.13;6.82;;;;;;;0.75;74.30;95807.34;5118433;28;20039;-64
2024/01/24 06:58:21;;;;;;;12.30;7.07;;;;;;;0.75;74.89;95815.00;5113177;28;20034;-64
2024/01/24 07:00:47;;;;;;;49.75;24.92;;;;;;;0.91;74.10;95815.44;5129623;27;20043;-64
2024/01/24 07:03:14;;;;;;;44.28;22.27;;;;;;;0.75;74.20;95806.50;5121920;27;20047;-64
2024/01/24 07:05:39;;;;;;;32.05;18.55;;;;;;;0.83;74.19;95807.97;5121363;28;20088;-64
2024/01/24 07:08:05;;;;;;;46.70;25.98;;;;;;;1.03;73.59;95809.97;5107559;28;20020;-64
2024/01/24 07:10:30;;;;;;;33.58;16.35;;;;;;;0.89;73.19;95807.81;5117179;28;20027;-64
2024/01/24 07:12:56;;;;;;;36.25;19.42;;;;;;;0.88;73.05;95813.78;5130122;27;20080;-64
2024/01/24 07:15:22;;;;;;;45.17;23.73;;;;;;;1.22;71.84;95807.66;5129962;27;20027;-64
2024/01/24 07:17:47;;;;;;;33.58;18.10;;;;;;;1.13;71.96;95810.50;5109829;28;20031;-64
2024/01/24 07:20:13;;;;;;;30.40;16.88;;;;;;;1.03;72.79;95809.97;5130803;27;20031;-63
2024/01/24 07:22:41;;;;;;;36.78;23.58;;;;;;;1.11;72.17;95813.13;5124942;27;20023;-63
2024/01/24 07:25:07;;;;;;;30.92;18.25;;;;;;;1.18;71.47;95800.97;5116502;27;20031;-64
2024/01/24 07:27:34;;;;;;;18.05;10.82;;;;;;;1.08;71.82;95809.81;5095699;28;20031;-68
2024/01/24 07:29:59;;;;;;;22.33;14.07;;;;;;;1.38;71.42;95818.28;5095622;28;20035;-63
2024/01/24 07:32:24;;;;;;;21.88;13.98;;;;;;;1.29;71.08;95829.66;5127480;27;20403;-63
2024/01/24 07:34:50;;;;;;;19.77;10.35;;;;;;;1.47;70.58;95840.22;5134940;27;20034;-63
2024/01/24 07:37:15;;;;;;;14.25;8.30;;;;;;;1.17;71.50;95837.72;5134759;27;20031;-63
2024/01/24 07:39:41;;;;;;;13.18;7.28;;;;;;;1.12;71.19;95839.56;5126594;27;20028;-63
2024/01/24 07:42:06;;;;;;;13.07;8.15;;;;;;;1.05;72.15;95835.50;5121381;27;20478;-65
2024/01/24 07:44:31;;;;;;;13.43;7.90;;;;;;;1.65;70.95;95839.66;5129419;27;20399;-64
2024/01/24 07:46:58;;;;;;;14.48;8.45;;;;;;;2.43;67.99;95852.44;5132076;27;20545;-64
2024/01/24 07:49:23;;;;;;;15.60;8.55;;;;;;;3.01;66.34;95838.41;5125156;27;20027;-64
2024/01/24 07:51:49;;;;;;;17.27;12.65;;;;;;;3.36;65.06;95842.25;5131140;27;20088;-64
2024/01/24 07:54:17;;;;;;;20.88;12.48;;;;;;;4.42;61.27;95851.69;5133093;27;20056;-65
2024/01/24 07:56:43;;;;;;;16.92;9.93;;;;;;;5.28;57.68;95850.50;5133364;27;20023;-64
2024/01/24 07:59:08;;;;;;;20.95;11.95;;;;;;;6.65;54.00;95849.94;5132381;27;20019;-65
2024/01/24 08:01:34;;;;;;;12.52;7.22;;;;;;;6.78;53.89;95851.91;5133975;27;20535;-65
2024/01/24 08:03:59;;;;;;;23.65;13.05;;;;;;;6.33;54.15;95845.59;5132601;27;20043;-65
2024/01/24 08:06:25;;;;;;;17.45;9.60;;;;;;;5.67;55.65;95849.56;5130996;27;20032;-65
2024/01/24 08:08:50;;;;;;;16.83;10.40;;;;;;;5.88;55.54;95842.56;5131552;27;20047;-65
2024/01/24 08:11:16;;;;;;;11.45;7.28;;;;;;;4.57;57.94;95851.94;5114054;27;20508;-65
2024/01/24 08:13:42;;;;;;;17.73;11.50;;;;;;;4.65;59.02;95853.31;5130846;27;20062;-65
2024/01/24 08:16:07;;;;;;;24.95;19.70;;;;;;;4.44;59.67;95824.16;5132287;27;20039;-64
2024/01/24 08:18:33;;;;;;;18.88;14.00;;;;;;;3.86;61.24;95861.72;5131584;27;20035;-64
2024/01/24 08:20:58;;;;;;;12.95;8.95;;;;;;;3.70;61.40;95823.78;5133039;27;20031;-65
2024/01/24 08:23:24;;;;;;;13.45;8.65;;;;;;;3.29;62.95;95854.50;5132772;27;20390;-64
2024/01/24 08:25:49;;;;;;;11.57;8.23;;;;;;;3.00;64.60;95859.84;5132900;27;20034;-64
2024/01/24 08:28:15;;;;;;;11.52;7.38;;;;;;;2.91;64.63;95866.16;5132755;27;20035;-64
2024/01/24 08:30:40;;;;;;;17.45;10.93;;;;;;;2.98;65.24;95871.91;5132711;27;20079;-64
2024/01/24 08:33:06;;;;;;;13.88;9.85;;;;;;;2.77;65.23;95876.09;5133123;27;20023;-64
2024/01/24 08:35:35;;;;;;;13.20;8.10;;;;;;;2.89;66.29;95873.91;5132414;27;20516;-64
2024/01/24 08:38:01;;;;;;;12.48;7.95;;;;;;;2.88;66.15;95864.53;5132471;27;20022;-65
2024/01/24 08:40:26;;;;;;;21.33;12.52;;;;;;;2.54;66.75;95867.47;5115439;27;20050;-65
2024/01/24 08:42:51;;;;;;;17.80;11.38;;;;;;;2.43;66.98;95861.88;5132432;27;20023;-64
2024/01/24 08:45:17;;;;;;;15.55;9.45;;;;;;;2.65;66.73;95854.28;5132491;27;20473;-64
2024/01/24 08:47:43;;;;;;;12.40;8.68;;;;;;;2.33;66.81;95847.69;5133435;27;20027;-64
2024/01/24 08:50:09;;;;;;;11.43;7.63;;;;;;;2.68;66.49;95851.59;5115415;27;20034;-64
2024/01/24 08:52:35;;;;;;;13.88;7.30;;;;;;;2.82;65.99;95848.53;5132259;27;20034;-64
2024/01/24 08:55:01;;;;;;;16.90;10.73;;;;;;;2.99;66.03;95837.66;5132154;27;20420;-64
2024/01/24 08:57:26;;;;;;;20.63;12.80;;;;;;;3.13;65.72;95836.25;5132172;27;20023;-64
2024/01/24 08:59:54;;;;;;;12.85;8.95;;;;;;;3.25;65.26;95839.25;5114868;27;20065;-64
2024/01/24 09:02:20;;;;;;;12.60;8.52;;;;;;;3.39;64.59;95842.13;5132072;27;20027;-64
2024/01/24 09:04:46;;;;;;;11.55;7.43;;;;;;;3.16;64.50;95843.00;5131954;27;20479;-64
2024/01/24 09:07:14;;;;;;;11.90;7.25;;;;;;;3.26;63.81;95840.91;5133211;27;20039;-65
2024/01/24 09:09:40;;;;;;;11.05;7.25;;;;;;;3.21;64.21;95848.81;5115134;27;20035;-64
2024/01/24 09:12:05;;;;;;;18.52;13.57;;;;;;;3.16;65.04;95842.16;5114864;27;20041;-64
2024/01/24 09:14:31;;;;;;;12.73;8.00;;;;;;;3.08;64.03;95856.13;5131722;27;20030;-64
2024/01/24 09:16:56;;;;;;;10.38;6.72;;;;;;;2.90;64.74;95820.88;5131776;27;20027;-64
2024/01/24 09:19:22;;;;;;;14.23;8.00;;;;;;;2.87;64.47;95864.59;5132930;27;20019;-64
2024/01/24 09:21:48;;;;;;;12.90;7.80;;;;;;;2.95;64.47;95854.88;5132985;27;20143;-65
2024/01/24 09:24:14;;;;;;;12.32;7.63;;;;;;;2.69;64.38;95853.25;5114377;27;20031;-64
2024/01/24 09:26:39;;;;;;;12.15;6.38;;;;;;;2.76;64.27;95848.75;5114509;27;20031;-65
2024/01/24 09:29:04;;;;;;;10.00;6.78;;;;;;;2.83;64.95;95852.78;5131445;27;20414;-65
2024/01/24 09:31:31;;;;;;;10.48;6.53;;;;;;;2.61;64.91;95827.88;5114623;27;20421;-64
2024/01/24 09:33:56;;;;;;;11.15;6.95;;;;;;;2.50;65.13;95835.09;5131424;27;20062;-64
2024/01/24 09:36:23;;;;;;;13.02;7.28;;;;;;;2.11;65.62;95817.63;5114533;27;20043;-64
2024/01/24 09:38:49;;;;;;;11.57;7.30;;;;;;;2.29;66.40;95828.19;5114282;27;20176;-64
2024/01/24 09:41:17;;;;;;;10.82;6.50;;;;;;;2.42;65.74;95817.44;5131328;27;20473;-64
2024/01/24 09:43:43;;;;;;;9.95;6.00;;;;;;;2.82;64.98;95804.91;5097418;27;20027;-64
2024/01/24 09:46:09;;;;;;;10.88;7.60;;;;;;;2.70;65.47;95813.88;5114305;27;20028;-64
2024/01/24 09:48:35;;;;;;;9.45;5.63;;;;;;;2.45;64.95;95791.69;5131095;27;20023;-64
2024/01/24 09:51:00;;;;;;;10.55;6.32;;;;;;;2.62;64.85;95803.91;5132798;27;20038;-64
2024/01/24 09:53:26;;;;;;;11.43;7.13;;;;;;;2.81;65.15;95796.34;5132325;27;20019;-64
2024/01/24 09:55:51;;;;;;;11.55;7.60;;;;;;;2.76;64.33;95782.88;5096821;27;20081;-64
2024/01/24 09:58:17;;;;;;;13.52;8.60;;;;;;;2.99;65.42;95786.31;5130951;27;20083;-64
2024/01/24 10:00:44;;;;;;;13.07;8.75;;;;;;;3.09;64.12;95783.34;5132528;27;20059;-64
2024/01/24 10:03:09;;;;;;;13.15;8.80;;;;;;;3.11;63.43;95788.41;5130784;27;20473;-64
2024/01/24 10:05:35;;;;;;;10.95;7.05;;;;;;;3.08;63.21;95786.78;5113891;27;20041;-65
2024/01/24 10:08:00;;;;;;;12.52;7.18;;;;;;;3.26;62.99;95786.97;5113699;27;20019;-65
2024/01/24 10:10:26;;;;;;;20.77;12.02;;;;;;;3.01;63.74;95787.94;5132367;27;20031;-64
2024/01/24 10:12:51;;;;;;;18.85;12.10;;;;;;;2.90;63.53;95761.84;5130785;27;20024;-64
2024/01/24 10:15:17;;;;;;;28.60;16.85;;;;;;;2.85;63.86;95777.41;5113802;27;20507;-64
2024/01/24 10:17:43;;;;;;;17.23;9.18;;;;;;;3.25;64.31;95773.31;5130572;27;20440;-64
2024/01/24 10:20:11;;;;;;;19.25;11.43;;;;;;;3.32;62.94;95773.91;5130810;27;20035;-64
2024/01/24 10:22:37;;;;;;;15.60;10.02;;;;;;;3.43;62.36;95770.94;5131876;27;20047;-64
2024/01/24 10:25:03;;;;;;;14.10;9.60;;;;;;;3.44;63.35;95770.03;5130673;27;20084;-64
2024/01/24 10:27:28;;;;;;;12.73;6.70;;;;;;;3.46;62.09;95761.38;5132221;27;20110;-64
2024/01/24 10:29:54;;;;;;;11.75;6.20;;;;;;;3.60;61.99;95763.38;5131928;27;20454;-64
2024/01/24 10:32:20;;;;;;;8.98;6.43;;;;;;;3.67;61.81;95753.69;5131857;27;20031;-64
2024/01/24 10:34:45;;;;;;;14.32;8.40;;;;;;;3.19;61.80;95757.31;5130512;28;20027;-64
2024/01/24 10:37:11;;;;;;;8.77;5.80;;;;;;;3.40;61.60;95759.03;5130419;27;20082;-65
2024/01/24 10:39:36;;;;;;;16.85;9.93;;;;;;;3.47;61.82;95752.75;5131682;27;20032;-64
2024/01/24 10:42:03;;;;;;;15.45;8.27;;;;;;;3.57;62.27;95748.09;5131768;27;20130;-65
2024/01/24 10:44:35;;;;;;;12.85;7.72;;;;;;;3.72;62.95;95744.88;5130352;28;20031;-64
2024/01/24 10:47:04;;;;;;;12.02;7.97;;;;;;;3.63;61.93;95737.56;5113942;28;20039;-64
2024/01/24 10:49:30;;;;;;;15.20;9.85;;;;;;;3.35;62.21;95701.88;5113699;28;20039;-64
2024/01/24 10:51:55;;;;;;;11.43;7.70;;;;;;;3.17;62.82;95735.97;5130413;28;20030;-65
2024/01/24 10:54:21;;;;;;;10.80;7.05;;;;;;;3.31;62.50;95721.69;5131520;27;20023;-64
2024/01/24 10:56:49;;;;;;;11.73;8.93;;;;;;;3.20;63.48;95718.72;5097105;27;20155;-64
2024/01/24 10:59:15;;;;;;;13.40;8.75;;;;;;;3.19;63.16;95714.50;5134339;27;20409;-64
2024/01/24 11:01:40;;;;;;;12.00;7.53;;;;;;;3.51;62.19;95718.34;5117221;27;20027;-64
2024/01/24 11:04:06;;;;;;;12.77;6.53;;;;;;;3.60;62.58;95713.72;5135653;27;20065;-64
2024/01/24 11:06:31;;;;;;;10.15;6.90;;;;;;;3.85;60.86;95701.53;5100472;27;20035;-64
2024/01/24 11:09:09;;;;;;;11.23;6.68;;;;;;;3.89;60.59;95685.06;5117173;27;20032;-64
2024/01/24 11:11:34;;;;;;;12.95;7.85;;;;;;;4.08;60.61;95685.09;5134611;27;20091;-64
2024/01/24 11:14:01;;;;;;;18.35;10.15;;;;;;;3.92;60.82;95682.34;5134242;27;20023;-64
2024/01/24 11:16:27;;;;;;;11.07;7.20;;;;;;;3.51;61.02;95679.81;5117649;27;20338;-64
2024/01/24 11:18:58;;;;;;;14.70;8.73;;;;;;;4.04;61.12;95686.16;5116809;27;20477;-64
2024/01/24 11:21:24;;;;;;;12.68;7.45;;;;;;;4.05;60.23;95695.53;5134389;27;20031;-65
2024/01/24 11:23:49;;;;;;;9.65;6.07;;;;;;;4.09;60.08;95693.66;5133851;27;20120;-64
2024/01/24 11:26:17;;;;;;;9.10;5.88;;;;;;;4.24;59.53;95682.72;5134216;27;20415;-64